New Plymouth, Idaho
Current Conditions -  °F | °C
As of 6:07 PM on Saturday 22 Nov 2014 (Local Time) from KONO Reporting Station
Haze Haze  
Wind Chill:   Ceiling: Unl
Heat Index:   Visibility: 2mi
Dew Point:   Wind: 0mph
Humidity: 93%   Direction: NA
Pressure: 29.91"   Gusts: NA
Location:  43.97°N, 116.82°W
Report Text: KONO 230107Z AUTO 00000KT 2SM BR FEW100 02/01 A2991 RMK AO2 T00220011
Loading
Personal Weather Stations






























Interactive Weather Map New forecast layout! Learn more

10-Day Weather Forecast

Advertisements
Track Severe Weather on mobile